createdAt,value
2018-12-25T00:01:49.416Z,97.54
2018-12-25T00:04:19.117Z,97.12
2018-12-25T00:06:48.504Z,97.28
2018-12-25T00:09:18.263Z,97.27
2018-12-25T00:11:47.576Z,97.13
2018-12-25T00:14:17.287Z,96.81
2018-12-25T00:16:46.604Z,96.91
2018-12-25T00:19:34.991Z,96.79
2018-12-25T00:22:04.510Z,97.00
2018-12-25T00:24:53.095Z,97.14
2018-12-25T00:27:41.515Z,97.41
2018-12-25T00:30:10.857Z,97.22
2018-12-25T00:32:40.173Z,97.35
2018-12-25T00:35:09.500Z,97.35
2018-12-25T00:37:38.830Z,97.43
2018-12-25T00:40:08.160Z,97.32
2018-12-25T00:42:37.601Z,97.33
2018-12-25T00:45:07.009Z,97.13
2018-12-25T00:47:36.349Z,97.29
2018-12-25T00:50:05.769Z,97.25
2018-12-25T00:52:35.153Z,97.25
2018-12-25T00:55:23.534Z,96.94
2018-12-25T00:57:53.240Z,96.84
2018-12-25T01:00:22.572Z,96.88
2018-12-25T01:02:52.363Z,96.76
2018-12-25T01:05:21.709Z,96.81
2018-12-25T01:07:51.242Z,96.68
2018-12-25T01:10:20.566Z,96.77
2018-12-25T01:12:50.189Z,96.48
2018-12-25T01:15:38.485Z,96.25
2018-12-25T01:18:07.955Z,96.33
2018-12-25T01:20:37.598Z,96.17
2018-12-25T01:23:06.937Z,96.06
2018-12-25T01:25:36.530Z,96.03
2018-12-25T01:28:05.938Z,96.04
2018-12-25T01:30:35.516Z,96.25
2018-12-25T01:33:04.838Z,96.00
2018-12-25T01:35:34.418Z,95.98
2018-12-25T01:38:03.737Z,96.16
2018-12-25T01:40:33.437Z,96.32
2018-12-25T01:43:02.752Z,96.39
2018-12-25T01:45:32.472Z,96.40
2018-12-25T01:48:01.820Z,96.46
2018-12-25T01:50:31.435Z,96.63
2018-12-25T01:53:00.756Z,96.44
2018-12-25T01:55:30.477Z,96.22
2018-12-25T01:57:59.812Z,96.30
2018-12-25T02:03:18.108Z,96.43
2018-12-25T02:05:47.434Z,96.45
2018-12-25T02:08:17.032Z,96.38
2018-12-25T02:10:46.400Z,96.45
2018-12-25T02:13:16.106Z,96.57
2018-12-25T02:15:45.433Z,96.39
2018-12-25T02:18:15.340Z,96.90
2018-12-25T02:20:44.654Z,96.95
2018-12-25T02:23:14.137Z,96.88
2018-12-25T02:25:43.480Z,97.00
2018-12-25T02:28:13.207Z,97.28
2018-12-25T02:30:42.530Z,97.38
2018-12-25T02:33:12.273Z,97.20
2018-12-25T02:35:41.613Z,97.16
2018-12-25T02:38:10.941Z,97.24
2018-12-25T02:40:40.277Z,97.08
2018-12-25T02:46:18.606Z,96.68
2018-12-25T02:48:48.333Z,96.48
2018-12-25T02:51:17.660Z,96.44
2018-12-25T02:53:47.449Z,96.24
2018-12-25T02:56:16.768Z,96.36
2018-12-25T02:58:46.389Z,96.50
2018-12-25T03:01:15.728Z,96.61
2018-12-25T03:03:45.257Z,96.69
2018-12-25T03:06:14.573Z,96.49
2018-12-25T03:08:44.104Z,96.60
2018-12-25T03:11:13.426Z,96.62
2018-12-25T03:13:43.107Z,96.34
2018-12-25T03:16:12.493Z,96.40
2018-12-25T03:18:41.840Z,96.20
2018-12-25T03:21:11.161Z,96.19
2018-12-25T03:23:40.668Z,96.29
2018-12-25T03:26:09.988Z,96.23
2018-12-25T03:28:39.366Z,96.09
2018-12-25T03:31:08.711Z,95.91
2018-12-25T03:33:38.481Z,95.85
2018-12-25T03:36:07.808Z,95.56
2018-12-25T03:38:37.479Z,95.74
2018-12-25T03:43:55.200Z,95.29
2018-12-25T03:46:43.470Z,94.91
2018-12-25T03:49:13.124Z,94.85
2018-12-25T03:51:42.430Z,94.68
2018-12-25T03:54:12.083Z,94.41
2018-12-25T03:56:41.528Z,94.42
2018-12-25T03:59:11.198Z,94.21
2018-12-25T04:01:40.522Z,94.11
2018-12-25T04:04:10.372Z,93.86
2018-12-25T04:06:39.700Z,93.75
2018-12-25T04:09:09.260Z,93.63
2018-12-25T04:11:38.674Z,93.49
2018-12-25T04:14:08.202Z,93.42
2018-12-25T04:16:37.557Z,93.30
2018-12-25T04:19:07.132Z,93.17
2018-12-25T04:21:55.596Z,93.07
2018-12-25T04:24:25.407Z,92.91
2018-12-25T04:26:55.053Z,92.98
2018-12-25T04:29:24.390Z,93.06
2018-12-25T04:31:54.163Z,93.43
2018-12-25T04:34:42.525Z,93.66
2018-12-25T04:37:11.962Z,93.78
2018-12-25T04:39:41.465Z,94.11
2018-12-25T04:42:10.773Z,94.46
2018-12-25T04:44:40.105Z,94.68
2018-12-25T04:47:09.513Z,94.73
2018-12-25T04:49:39.051Z,94.84
2018-12-25T04:52:08.414Z,95.08
2018-12-25T04:54:37.915Z,95.12
2018-12-25T04:57:07.245Z,95.01
2018-12-25T04:59:55.648Z,95.29
2018-12-25T05:02:25.030Z,94.96
2018-12-25T05:04:54.404Z,94.93
2018-12-25T05:07:23.781Z,94.74
2018-12-25T05:09:53.139Z,94.80
2018-12-25T05:12:22.471Z,94.89
2018-12-25T05:14:51.817Z,94.94
2018-12-25T05:17:21.145Z,94.88
2018-12-25T05:19:50.481Z,95.28
2018-12-25T05:22:19.850Z,95.42
2018-12-25T05:24:49.242Z,95.37
2018-12-25T05:27:18.561Z,95.40
2018-12-25T05:29:48.184Z,95.61
2018-12-25T05:32:17.597Z,95.68
2018-12-25T05:34:47.256Z,95.74
2018-12-25T05:37:16.735Z,95.67
2018-12-25T05:39:46.389Z,95.79
2018-12-25T05:42:15.742Z,95.84
2018-12-25T05:47:20.755Z,96.02
2018-12-25T05:49:50.141Z,95.75
2018-12-25T05:52:19.846Z,95.72
2018-12-25T05:54:49.185Z,95.57
2018-12-25T05:57:18.698Z,95.33
2018-12-25T05:59:48.025Z,95.34
2018-12-25T06:02:17.498Z,95.42
2018-12-25T06:04:46.833Z,95.26
2018-12-25T06:07:16.595Z,94.79
2018-12-25T06:12:34.253Z,94.30
2018-12-25T06:15:04.028Z,94.54
2018-12-25T06:17:33.346Z,94.51
2018-12-25T06:20:02.984Z,94.44
2018-12-25T06:22:32.374Z,94.84
2018-12-25T06:25:02.097Z,94.79
2018-12-25T06:27:31.430Z,94.63
2018-12-25T06:30:01.188Z,95.25
2018-12-25T06:32:49.449Z,94.80
2018-12-25T06:35:18.781Z,94.63
2018-12-25T06:37:48.333Z,95.20
2018-12-25T06:40:37.114Z,95.34
2018-12-25T06:43:06.440Z,95.62
2018-12-25T06:45:35.983Z,96.28
2018-12-25T06:48:05.346Z,95.57
2018-12-25T06:50:34.934Z,95.37
2018-12-25T06:53:23.222Z,95.77
2018-12-25T07:01:21.198Z,95.68
2018-12-25T07:03:50.547Z,95.13
2018-12-25T07:06:19.907Z,95.37
2018-12-25T07:08:49.257Z,95.74
2018-12-25T07:11:18.708Z,95.71
2018-12-25T07:13:48.066Z,95.29
2018-12-25T07:16:17.433Z,94.96
2018-12-25T07:18:46.892Z,94.53
2018-12-25T07:21:16.312Z,94.17
2018-12-25T07:23:45.897Z,93.84
2018-12-25T07:26:15.254Z,93.46
2018-12-25T07:28:44.637Z,93.39
2018-12-25T07:31:13.970Z,93.10
2018-12-25T07:33:43.718Z,92.92
2018-12-25T07:36:13.051Z,92.95
2018-12-25T07:38:42.679Z,92.44
2018-12-25T07:41:12.002Z,92.57
2018-12-25T07:43:41.555Z,92.26
2018-12-25T07:46:10.886Z,92.06
2018-12-25T07:48:40.441Z,92.39
2018-12-25T07:51:09.755Z,92.37
2018-12-25T07:53:39.256Z,92.32
2018-12-25T07:56:27.618Z,91.97
2018-12-25T08:02:06.362Z,91.82
2018-12-25T08:04:35.702Z,91.35
2018-12-25T08:07:05.082Z,91.52
2018-12-25T08:09:34.393Z,91.57
2018-12-25T08:12:04.135Z,91.37
2018-12-25T08:14:33.469Z,91.43
2018-12-25T08:17:03.195Z,91.57
2018-12-25T08:19:32.530Z,91.52
2018-12-25T08:22:02.071Z,91.64
2018-12-25T08:24:31.481Z,91.75
2018-12-25T08:27:00.896Z,91.66
2018-12-25T08:29:49.461Z,91.30
2018-12-25T08:32:18.806Z,91.27
2018-12-25T08:34:48.325Z,90.92
2018-12-25T08:37:36.854Z,90.89
2018-12-25T08:40:06.235Z,90.99
2018-12-25T08:42:54.592Z,90.72
2018-12-25T08:45:24.338Z,90.40
2018-12-25T08:47:53.666Z,90.14
2018-12-25T08:50:23.193Z,90.12
2018-12-25T08:52:52.485Z,90.12
2018-12-25T08:55:22.260Z,89.84
2018-12-25T08:57:51.650Z,89.63
2018-12-25T09:00:21.664Z,89.61
2018-12-25T09:02:50.969Z,89.40
2018-12-25T09:05:20.354Z,88.99
2018-12-25T09:07:49.636Z,88.81
2018-12-25T09:10:19.234Z,88.47
2018-12-25T09:12:48.606Z,88.43
2018-12-25T09:15:18.187Z,88.17
2018-12-25T09:17:47.519Z,88.03
2018-12-25T09:20:17.046Z,87.87
2018-12-25T09:22:46.358Z,87.29
2018-12-25T09:25:15.994Z,87.32
2018-12-25T09:28:04.349Z,87.07
2018-12-25T09:30:33.664Z,87.07
2018-12-25T09:33:03.162Z,86.66
2018-12-25T09:35:32.485Z,86.46
2018-12-25T09:38:02.119Z,86.41
2018-12-25T09:40:31.414Z,86.50
2018-12-25T09:43:00.861Z,86.56
2018-12-25T09:45:30.166Z,86.26
2018-12-25T09:47:59.977Z,86.66
2018-12-25T09:50:29.408Z,86.65
2018-12-25T09:53:17.758Z,86.35
2018-12-25T09:55:47.200Z,86.53
2018-12-25T09:58:16.626Z,86.55
2018-12-25T10:00:46.049Z,86.73
2018-12-25T10:03:15.486Z,86.59
2018-12-25T10:05:44.971Z,86.44
2018-12-25T10:08:14.328Z,86.45
2018-12-25T10:10:43.918Z,86.19
2018-12-25T10:13:13.268Z,85.97
2018-12-25T10:16:01.965Z,86.29
2018-12-25T10:21:19.570Z,86.64
2018-12-25T10:23:48.905Z,86.53
2018-12-25T10:26:18.287Z,86.14
2018-12-25T10:29:06.670Z,86.40
2018-12-25T10:31:36.331Z,86.12
2018-12-25T10:34:05.665Z,85.50
2018-12-25T10:36:35.232Z,85.77
2018-12-25T10:42:13.219Z,85.66
2018-12-25T10:44:42.549Z,86.03
2018-12-25T10:47:30.790Z,86.10
2018-12-25T10:50:00.282Z,86.20
2018-12-25T10:52:29.634Z,86.44
2018-12-25T10:54:59.219Z,86.69
2018-12-25T10:57:28.588Z,86.71
2018-12-25T10:59:58.230Z,86.93
2018-12-25T11:02:27.562Z,86.95
2018-12-25T11:04:57.138Z,87.17
2018-12-25T11:07:26.483Z,87.16
2018-12-25T11:09:56.132Z,87.07
2018-12-25T11:12:25.475Z,86.74
2018-12-25T11:14:56.204Z,86.88
2018-12-25T11:17:26.239Z,86.44
2018-12-25T11:19:55.563Z,84.69
2018-12-25T11:22:24.855Z,84.80
2018-12-25T11:25:13.221Z,85.12
2018-12-25T11:28:01.497Z,85.19
2018-12-25T11:30:30.979Z,85.24
2018-12-25T11:33:00.281Z,85.49
2018-12-25T11:35:29.949Z,85.25
2018-12-25T11:37:59.297Z,85.40
2018-12-25T11:40:28.773Z,84.94
2018-12-25T11:42:58.096Z,84.52
2018-12-25T11:45:27.546Z,84.69
2018-12-25T11:47:56.862Z,84.08
2018-12-25T11:50:26.542Z,83.45
2018-12-25T11:52:55.856Z,83.25
2018-12-25T11:55:25.385Z,83.12
2018-12-25T11:57:54.679Z,83.05
2018-12-25T12:00:24.180Z,82.71
2018-12-25T12:02:53.493Z,82.77
2018-12-25T12:05:22.908Z,82.49
2018-12-25T12:07:52.252Z,81.78
2018-12-25T12:10:21.924Z,81.51
2018-12-25T12:12:51.219Z,81.35
2018-12-25T12:15:20.567Z,81.08
2018-12-25T12:20:38.204Z,81.61
2018-12-25T12:23:08.279Z,81.74
2018-12-25T12:25:37.578Z,82.13
2018-12-25T12:28:07.296Z,82.30
2018-12-25T12:30:36.604Z,82.86
2018-12-25T12:33:06.186Z,83.38
2018-12-25T12:35:35.556Z,83.58
2018-12-25T12:38:05.115Z,83.45
2018-12-25T12:40:34.435Z,83.88
2018-12-25T12:43:04.105Z,83.68
2018-12-25T12:48:21.749Z,83.43
2018-12-25T12:53:39.896Z,83.75
2018-12-25T12:56:09.200Z,83.42
2018-12-25T12:58:39.101Z,83.62
2018-12-25T13:01:08.457Z,84.19
2018-12-25T13:03:38.790Z,84.51
2018-12-25T13:06:27.723Z,84.55
2018-12-25T13:08:57.074Z,84.90
2018-12-25T13:11:45.428Z,85.10
2018-12-25T13:14:15.423Z,85.25
2018-12-25T13:16:44.751Z,85.30
2018-12-25T13:19:14.154Z,85.53
2018-12-25T13:21:43.453Z,85.76
2018-12-25T13:24:13.143Z,85.92
2018-12-25T13:26:42.487Z,86.06
2018-12-25T13:29:12.185Z,86.07
2018-12-25T13:31:41.498Z,86.52
2018-12-25T13:34:11.343Z,86.49
2018-12-25T13:36:40.707Z,86.73
2018-12-25T13:41:58.901Z,86.89
2018-12-25T13:44:28.201Z,87.14
2018-12-25T13:46:57.974Z,88.09
2018-12-25T13:49:27.293Z,88.43
2018-12-25T13:51:56.998Z,88.39
2018-12-25T13:54:26.298Z,88.72
2018-12-25T13:56:55.824Z,88.80
2018-12-25T13:59:25.140Z,89.34
2018-12-25T14:01:54.877Z,89.08
2018-12-25T14:04:24.202Z,89.24
2018-12-25T14:06:53.843Z,89.05
2018-12-25T14:09:23.151Z,89.25
2018-12-25T14:11:52.651Z,89.20
2018-12-25T14:14:21.991Z,89.19
2018-12-25T14:16:51.470Z,89.26
2018-12-25T14:19:20.801Z,89.42
2018-12-25T14:21:50.340Z,89.58
2018-12-25T14:24:19.646Z,90.41
2018-12-25T14:26:49.309Z,91.87
2018-12-25T14:29:18.664Z,91.45
2018-12-25T14:31:48.275Z,92.15
2018-12-25T14:34:17.613Z,91.82
2018-12-25T14:36:47.043Z,92.30
2018-12-25T14:39:16.353Z,92.53
2018-12-25T14:41:46.147Z,92.94
2018-12-25T14:44:15.445Z,93.52
2018-12-25T14:46:45.188Z,92.49
2018-12-25T14:49:33.391Z,92.93
2018-12-25T14:52:02.795Z,92.80
2018-12-25T14:54:32.189Z,93.09
2018-12-25T14:57:20.722Z,93.83
2018-12-25T14:59:50.027Z,93.54
2018-12-25T15:02:19.355Z,93.97
2018-12-25T15:04:48.807Z,94.30
2018-12-25T15:07:18.195Z,94.20
2018-12-25T15:09:47.504Z,94.23
2018-12-25T15:12:17.024Z,94.29
2018-12-25T15:14:46.341Z,94.66
2018-12-25T15:17:15.963Z,93.87
2018-12-25T15:19:45.411Z,94.17
2018-12-25T15:22:33.775Z,94.14
2018-12-25T15:25:03.173Z,94.16
2018-12-25T15:27:32.560Z,94.11
2018-12-25T15:30:01.942Z,93.78
2018-12-25T15:32:31.251Z,94.14
2018-12-25T15:35:00.664Z,94.32
2018-12-25T15:37:29.967Z,94.60
2018-12-25T15:39:59.315Z,94.29
2018-12-25T15:45:17.207Z,94.73
2018-12-25T15:47:46.492Z,94.45
2018-12-25T15:50:16.059Z,94.08
2018-12-25T15:52:45.366Z,93.86
2018-12-25T15:55:33.726Z,93.61
2018-12-25T15:58:03.412Z,93.46
2018-12-25T16:00:52.170Z,93.33
2018-12-25T16:03:21.526Z,93.10
2018-12-25T16:05:52.588Z,93.23
2018-12-25T16:08:22.174Z,93.55
2018-12-25T16:10:51.477Z,93.49
2018-12-25T16:13:40.072Z,93.69
2018-12-25T16:16:09.425Z,93.58
2018-12-25T16:18:38.979Z,93.17
2018-12-25T16:21:08.313Z,93.02
2018-12-25T16:26:13.124Z,92.75
2018-12-25T16:28:42.445Z,92.67
2018-12-25T16:31:12.217Z,92.64
2018-12-25T16:33:41.532Z,92.47
2018-12-25T16:36:11.219Z,92.45
2018-12-25T16:38:40.527Z,92.37
2018-12-25T16:41:10.182Z,92.06
2018-12-25T16:43:39.546Z,92.68
2018-12-25T16:46:09.157Z,92.35
2018-12-25T16:48:38.463Z,93.35
2018-12-25T16:51:08.323Z,93.35
2018-12-25T16:53:38.611Z,93.85
2018-12-25T16:56:07.934Z,94.31
2018-12-25T16:58:37.277Z,94.78
2018-12-25T17:01:06.593Z,95.03
2018-12-25T17:03:36.038Z,95.04
2018-12-25T17:06:05.561Z,95.16
2018-12-25T17:08:34.889Z,95.24
2018-12-25T17:11:04.333Z,94.94
2018-12-25T17:13:34.943Z,95.21
2018-12-25T17:16:04.465Z,95.29
2018-12-25T17:18:52.770Z,95.05
2018-12-25T17:21:22.132Z,94.87
2018-12-25T17:24:10.536Z,96.05
2018-12-25T17:26:39.889Z,95.27
2018-12-25T17:29:09.189Z,95.99
2018-12-25T17:31:38.940Z,96.11
2018-12-25T17:34:08.255Z,95.46
2018-12-25T17:36:37.658Z,95.25
2018-12-25T17:39:08.349Z,95.41
2018-12-25T17:41:37.728Z,95.37
2018-12-25T17:44:07.037Z,94.89
2018-12-25T17:46:36.486Z,94.33
2018-12-25T17:49:05.885Z,94.65
2018-12-25T17:51:35.215Z,94.24
2018-12-25T17:54:10.706Z,94.35
2018-12-25T17:59:23.914Z,94.48
2018-12-25T18:01:53.227Z,94.50
2018-12-25T18:04:22.521Z,93.95
2018-12-25T18:06:51.928Z,94.24
2018-12-25T18:09:21.394Z,94.88
2018-12-25T18:11:51.009Z,94.49
2018-12-25T18:14:20.319Z,94.52
2018-12-25T18:16:49.728Z,94.50
2018-12-25T18:19:19.034Z,94.93
2018-12-25T18:21:48.430Z,94.81
2018-12-25T18:24:19.325Z,94.57
2018-12-25T18:26:49.231Z,94.95
2018-12-25T18:29:18.540Z,95.36
2018-12-25T18:31:48.255Z,95.17
2018-12-25T18:34:36.830Z,95.31
2018-12-25T18:40:13.606Z,94.93
2018-12-25T18:42:43.088Z,94.83
2018-12-25T18:45:12.476Z,95.04
2018-12-25T18:47:41.831Z,94.85
2018-12-25T18:50:11.157Z,94.69
2018-12-25T18:52:40.478Z,94.49
2018-12-25T18:55:28.740Z,94.65
2018-12-25T18:57:58.124Z,94.13
2018-12-25T19:00:27.429Z,94.29
2018-12-25T19:02:56.883Z,94.50
2018-12-25T19:05:26.207Z,94.46
2018-12-25T19:07:55.541Z,94.92
2018-12-25T19:10:24.931Z,94.73
2018-12-25T19:12:54.251Z,94.40
2018-12-25T19:15:25.524Z,94.47
2018-12-25T19:18:14.161Z,95.13
2018-12-25T19:21:02.508Z,95.44
2018-12-25T19:23:32.322Z,95.06
2018-12-25T19:28:49.979Z,95.03
2018-12-25T19:31:19.274Z,95.58
2018-12-25T19:33:48.574Z,95.83
2018-12-25T19:36:17.887Z,95.60
2018-12-25T19:38:47.372Z,95.38
2018-12-25T19:41:16.679Z,95.62
2018-12-25T19:43:46.561Z,95.96
2018-12-25T19:46:15.886Z,95.91
2018-12-25T19:48:45.472Z,95.85
2018-12-25T19:51:14.825Z,96.23
2018-12-25T19:53:44.463Z,96.16
2018-12-25T19:56:13.750Z,96.50
2018-12-25T19:58:43.279Z,96.52
2018-12-25T20:01:12.566Z,96.23
2018-12-25T20:04:08.195Z,95.68
2018-12-25T20:07:15.498Z,96.63
2018-12-25T20:10:23.073Z,96.83
2018-12-25T20:13:30.383Z,96.79
2018-12-25T20:16:37.868Z,96.78
2018-12-25T20:19:45.157Z,96.63
2018-12-25T20:22:45.857Z,96.79
2018-12-25T20:25:53.356Z,97.30
2018-12-25T20:28:44.297Z,96.72
2018-12-25T20:31:51.606Z,96.91
2018-12-25T20:34:58.976Z,96.86
2018-12-25T20:38:06.432Z,97.10
2018-12-25T20:41:07.355Z,97.25
2018-12-25T20:47:21.917Z,96.91
2018-12-25T20:50:29.243Z,96.61
2018-12-25T20:53:36.638Z,96.89
2018-12-25T20:56:41.844Z,96.50
2018-12-25T20:59:49.164Z,96.44
2018-12-25T21:02:56.490Z,96.10
2018-12-25T21:09:02.547Z,95.79
2018-12-25T21:12:05.646Z,95.37
2018-12-25T21:15:07.521Z,95.65
2018-12-25T21:18:14.846Z,95.92
2018-12-25T21:21:22.298Z,95.90
2018-12-25T21:24:29.847Z,95.57
2018-12-25T21:27:37.167Z,96.19
2018-12-25T21:30:08.810Z,96.51
2018-12-25T21:32:57.298Z,96.42
2018-12-25T21:35:27.223Z,96.04
2018-12-25T21:37:58.048Z,96.04
2018-12-25T21:41:07.006Z,96.42
2018-12-25T21:46:25.826Z,96.16
2018-12-25T21:48:55.316Z,95.71
2018-12-25T21:51:25.037Z,95.28
2018-12-25T21:53:54.793Z,95.85
2018-12-25T21:56:24.142Z,96.03
2018-12-25T21:58:54.727Z,96.03
2018-12-25T22:01:24.481Z,95.37
2018-12-25T22:03:54.489Z,96.15
2018-12-25T22:06:23.798Z,95.83
2018-12-25T22:08:53.451Z,96.30
2018-12-25T22:11:22.746Z,95.92
2018-12-25T22:13:52.314Z,95.25
2018-12-25T22:16:21.767Z,95.20
2018-12-25T22:19:10.255Z,95.39
2018-12-25T22:21:40.361Z,95.67
2018-12-25T22:24:09.762Z,96.55
2018-12-25T22:26:39.386Z,96.40
2018-12-25T22:29:08.767Z,95.78
2018-12-25T22:31:38.251Z,95.59
2018-12-25T22:34:07.550Z,95.12
2018-12-25T22:36:37.178Z,95.08
2018-12-25T22:39:07.436Z,94.79
2018-12-25T22:41:37.093Z,95.59
2018-12-25T22:44:06.412Z,95.17
2018-12-25T22:46:36.038Z,94.98
2018-12-25T22:49:07.212Z,95.04
2018-12-25T22:51:55.418Z,94.58
2018-12-25T22:54:24.806Z,95.22
2018-12-25T22:56:54.100Z,94.95
2018-12-25T22:59:23.602Z,94.38
2018-12-25T23:02:12.039Z,93.96
2018-12-25T23:07:16.821Z,95.15
2018-12-25T23:09:46.473Z,94.64
2018-12-25T23:12:15.773Z,94.89
2018-12-25T23:15:04.170Z,95.12
2018-12-25T23:17:33.704Z,94.50
2018-12-25T23:20:02.995Z,93.99
2018-12-25T23:22:32.470Z,93.98
2018-12-25T23:25:01.836Z,93.72
2018-12-25T23:27:31.399Z,94.04
2018-12-25T23:30:00.718Z,94.40
2018-12-25T23:32:30.162Z,94.44
2018-12-25T23:34:59.469Z,93.67
2018-12-25T23:37:29.244Z,93.61
2018-12-25T23:39:58.535Z,93.79
2018-12-25T23:42:28.192Z,93.26
2018-12-25T23:44:57.505Z,95.06
2018-12-25T23:47:27.094Z,94.50
2018-12-25T23:49:56.425Z,95.03
2018-12-25T23:52:26.120Z,94.42
2018-12-25T23:54:55.462Z,95.96
2018-12-25T23:57:25.147Z,94.86
2018-12-25T23:59:54.493Z,95.82
